Time;durP1;ratioP1;P1;durP2;ratioP2;P2;SDS_P1;SDS_P2;PMS_P1;PMS_P2;Temp;Humidity;BMP_temperature;BMP_pressure;BME280_temperature;BME280_humidity;BME280_pressure;Samples;Min_cycle;Max_cycle;Signal;HPM_P1;HPM_P2
2022/07/27 00:00:23;;;;;;;3.10;0.90;;;25.00;55.80;;;;;;5047243;28;20559;-64
2022/07/27 00:02:51;;;;;;;1.55;1.00;;;25.00;55.80;;;;;;5030915;28;20038;-63
2022/07/27 00:05:19;;;;;;;1.60;1.10;;;25.00;55.80;;;;;;5025408;28;20044;-63
2022/07/27 00:07:45;;;;;;;1.20;0.68;;;25.00;55.90;;;;;;5041369;28;20029;-63
2022/07/27 00:10:10;;;;;;;2.63;0.90;;;24.90;55.80;;;;;;5029288;28;20032;-64
2022/07/27 00:12:35;;;;;;;0.73;0.60;;;24.90;55.90;;;;;;5033898;28;20033;-63
2022/07/27 00:15:01;;;;;;;0.98;0.70;;;25.00;55.90;;;;;;5027368;28;20486;-63
2022/07/27 00:17:26;;;;;;;1.85;0.82;;;25.00;56.00;;;;;;5029138;28;20056;-64
2022/07/27 00:19:52;;;;;;;2.22;0.90;;;25.00;55.90;;;;;;5028271;28;20025;-63
2022/07/27 00:22:17;;;;;;;2.65;0.80;;;24.90;55.90;;;;;;5025249;28;20075;-63
2022/07/27 00:24:43;;;;;;;1.02;0.70;;;24.90;55.90;;;;;;5026992;28;20030;-63
2022/07/27 00:27:08;;;;;;;1.42;0.77;;;24.90;55.90;;;;;;5028892;28;20028;-63
2022/07/27 00:29:34;;;;;;;1.33;0.80;;;24.90;55.80;;;;;;5046526;28;20025;-63
2022/07/27 00:31:59;;;;;;;1.88;1.00;;;24.90;55.80;;;;;;5041605;28;20022;-63
2022/07/27 00:34:25;;;;;;;2.03;0.95;;;24.90;55.70;;;;;;5025961;28;20037;-63
2022/07/27 00:36:50;;;;;;;0.85;0.70;;;24.90;55.70;;;;;;5029937;28;20549;-63
2022/07/27 00:39:16;;;;;;;1.23;0.60;;;24.90;55.70;;;;;;5046234;28;20036;-63
2022/07/27 00:41:42;;;;;;;0.75;0.75;;;24.90;55.70;;;;;;5044953;28;20037;-64
2022/07/27 00:44:07;;;;;;;1.23;0.75;;;24.90;55.70;;;;;;5025470;28;20080;-63
2022/07/27 00:46:33;;;;;;;1.13;0.80;;;24.90;55.70;;;;;;5027121;28;20410;-63
2022/07/27 00:48:58;;;;;;;2.67;0.88;;;24.90;55.70;;;;;;5028408;28;20112;-64
2022/07/27 00:51:24;;;;;;;1.75;0.70;;;24.90;55.70;;;;;;5046573;28;20056;-64
2022/07/27 00:53:50;;;;;;;1.20;0.77;;;24.90;55.70;;;;;;5025454;28;20034;-63
2022/07/27 00:56:16;;;;;;;1.98;0.77;;;24.90;55.70;;;;;;5026766;28;20037;-63
2022/07/27 00:58:41;;;;;;;0.60;0.60;;;24.90;55.70;;;;;;5028538;28;20029;-63
2022/07/27 01:01:07;;;;;;;1.42;0.80;;;24.90;55.70;;;;;;5012348;28;20032;-64
2022/07/27 01:03:32;;;;;;;1.70;0.80;;;24.90;55.70;;;;;;5031958;28;20103;-63
2022/07/27 01:05:58;;;;;;;1.30;0.80;;;24.90;55.70;;;;;;5026576;28;20120;-63
2022/07/27 01:08:23;;;;;;;0.98;0.77;;;24.90;55.60;;;;;;5010672;28;20028;-62
2022/07/27 01:10:49;;;;;;;3.17;0.80;;;24.80;55.60;;;;;;5028188;28;20033;-64
2022/07/27 01:13:15;;;;;;;0.75;0.70;;;24.90;55.60;;;;;;4998490;28;20022;-63
2022/07/27 01:15:41;;;;;;;1.90;0.90;;;24.90;55.60;;;;;;5005096;28;20430;-63
2022/07/27 01:18:10;;;;;;;1.90;0.73;;;24.80;55.70;;;;;;5022798;28;20040;-64
2022/07/27 01:20:36;;;;;;;2.08;1.05;;;24.90;55.70;;;;;;5045640;28;20088;-64
2022/07/27 01:23:01;;;;;;;2.13;1.02;;;24.80;55.70;;;;;;5039085;28;20120;-63
2022/07/27 01:25:27;;;;;;;4.43;0.80;;;24.80;55.70;;;;;;5026653;28;20034;-63
2022/07/27 01:27:52;;;;;;;2.00;0.70;;;24.80;55.80;;;;;;5028015;28;20036;-63
2022/07/27 01:30:28;;;;;;;2.88;0.88;;;24.80;55.80;;;;;;5027990;28;20029;-64
2022/07/27 01:33:04;;;;;;;2.08;0.80;;;24.80;55.80;;;;;;5024714;28;20026;-63
2022/07/27 01:35:30;;;;;;;0.75;0.75;;;24.80;55.80;;;;;;5024106;28;20465;-63
2022/07/27 01:37:55;;;;;;;1.83;0.82;;;24.80;55.90;;;;;;5028032;28;20029;-63
2022/07/27 01:40:21;;;;;;;1.40;0.80;;;24.80;55.90;;;;;;5027894;28;20048;-63
2022/07/27 01:42:47;;;;;;;2.22;1.13;;;24.80;55.90;;;;;;5025668;28;20220;-63
2022/07/27 01:45:12;;;;;;;2.15;0.90;;;24.80;56.60;;;;;;5025848;28;20096;-63
2022/07/27 01:47:38;;;;;;;3.00;0.98;;;24.80;56.00;;;;;;5024477;28;20025;-64
2022/07/27 01:50:04;;;;;;;1.83;1.20;;;24.80;55.90;;;;;;5045566;28;20056;-63
2022/07/27 01:52:29;;;;;;;2.40;1.02;;;24.80;55.90;;;;;;5028504;28;20473;-63
2022/07/27 01:54:55;;;;;;;2.53;1.00;;;24.80;56.50;;;;;;4990078;28;20149;-63
2022/07/27 01:57:20;;;;;;;3.33;1.25;;;24.70;55.70;;;;;;5005893;28;20038;-63
2022/07/27 01:59:46;;;;;;;2.00;0.70;;;24.80;55.70;;;;;;5038262;28;20088;-62
2022/07/27 02:02:14;;;;;;;2.20;0.80;;;24.80;55.70;;;;;;5047307;28;20029;-63
2022/07/27 02:04:39;;;;;;;2.08;0.77;;;24.80;55.70;;;;;;5034680;28;20034;-63
2022/07/27 02:07:05;;;;;;;3.15;0.88;;;24.70;55.60;;;;;;5028402;28;20306;-63
2022/07/27 02:09:30;;;;;;;1.80;0.90;;;24.80;55.60;;;;;;5042835;28;20044;-63
2022/07/27 02:14:54;;;;;;;1.77;0.90;;;24.70;55.60;;;;;;4984234;28;20026;-63
2022/07/27 02:17:19;;;;;;;3.00;0.77;;;24.70;55.50;;;;;;5029178;28;20036;-63
2022/07/27 02:19:45;;;;;;;2.30;0.80;;;24.70;55.50;;;;;;5042744;28;20409;-63
2022/07/27 02:22:10;;;;;;;1.33;0.70;;;24.70;55.50;;;;;;5031315;28;20520;-63
2022/07/27 02:24:36;;;;;;;5.15;1.20;;;24.70;55.40;;;;;;5037627;28;20092;-64
2022/07/27 02:27:02;;;;;;;2.25;0.82;;;24.70;55.50;;;;;;5029559;28;20107;-63
2022/07/27 02:29:29;;;;;;;3.30;1.10;;;24.60;55.30;;;;;;5038971;28;20039;-63
2022/07/27 02:31:55;;;;;;;2.63;1.00;;;24.60;55.30;;;;;;5049057;28;20060;-63
2022/07/27 02:34:20;;;;;;;7.20;1.88;;;24.70;55.30;;;;;;5040865;28;20103;-63
2022/07/27 02:36:45;;;;;;;1.67;0.88;;;24.70;55.30;;;;;;5029274;28;20050;-63
2022/07/27 02:39:11;;;;;;;3.55;0.90;;;24.70;55.20;;;;;;5035437;28;20079;-63
2022/07/27 02:41:36;;;;;;;2.95;1.30;;;24.70;55.20;;;;;;5049040;28;20409;-64
2022/07/27 02:44:02;;;;;;;1.63;0.93;;;24.70;55.30;;;;;;5043713;28;20036;-64
2022/07/27 02:46:27;;;;;;;3.95;0.90;;;24.70;55.20;;;;;;5029855;28;20044;-64
2022/07/27 02:48:53;;;;;;;3.30;0.75;;;24.60;55.10;;;;;;5031855;28;20036;-63
2022/07/27 02:51:18;;;;;;;2.15;1.00;;;24.60;55.10;;;;;;5048830;28;20448;-63
2022/07/27 02:53:44;;;;;;;2.15;0.85;;;24.60;55.10;;;;;;5030660;28;20120;-63
2022/07/27 02:56:09;;;;;;;4.05;1.20;;;24.60;55.10;;;;;;5028994;28;20071;-63
2022/07/27 02:58:36;;;;;;;2.28;0.80;;;24.60;55.10;;;;;;5026727;28;20029;-64
2022/07/27 03:01:02;;;;;;;2.35;0.80;;;24.50;55.10;;;;;;5030230;28;20632;-64
2022/07/27 03:03:27;;;;;;;2.08;0.80;;;24.50;55.10;;;;;;5048977;28;20044;-63
2022/07/27 03:05:53;;;;;;;2.33;0.80;;;24.60;55.20;;;;;;5027214;28;20054;-63
2022/07/27 03:08:18;;;;;;;3.45;1.02;;;24.60;55.20;;;;;;5028770;28;20029;-63
2022/07/27 03:10:44;;;;;;;2.00;0.75;;;24.50;55.30;;;;;;5030232;28;20029;-63
2022/07/27 03:13:09;;;;;;;1.73;0.88;;;24.60;55.30;;;;;;5029736;28;20048;-63
2022/07/27 03:15:35;;;;;;;2.40;1.10;;;24.60;55.50;;;;;;5035306;28;20292;-63
2022/07/27 03:18:00;;;;;;;3.03;0.80;;;24.50;55.50;;;;;;5029002;28;20057;-63
2022/07/27 03:20:26;;;;;;;1.60;0.88;;;24.50;55.50;;;;;;5029923;28;20548;-63
2022/07/27 03:22:53;;;;;;;2.38;0.95;;;24.50;55.50;;;;;;5030379;28;20033;-63
2022/07/27 03:25:18;;;;;;;4.32;1.10;;;24.50;55.50;;;;;;5038907;28;20032;-63
2022/07/27 03:27:44;;;;;;;0.93;0.88;;;24.50;55.30;;;;;;5026565;28;20022;-63
2022/07/27 03:30:09;;;;;;;5.18;1.05;;;24.50;55.30;;;;;;5035500;28;20033;-63
2022/07/27 03:32:35;;;;;;;2.70;1.00;;;24.50;55.20;;;;;;5034458;28;20034;-63
2022/07/27 03:35:00;;;;;;;1.67;0.77;;;24.50;55.30;;;;;;5013555;28;20075;-64
2022/07/27 03:37:26;;;;;;;3.50;0.95;;;24.50;55.20;;;;;;5028512;28;20187;-63
2022/07/27 03:39:51;;;;;;;3.38;1.10;;;24.50;55.80;;;;;;5028788;28;20116;-63
2022/07/27 03:42:17;;;;;;;3.40;0.90;;;24.50;55.10;;;;;;5028377;28;20087;-63
2022/07/27 03:44:42;;;;;;;1.88;0.88;;;24.50;55.10;;;;;;5029925;28;20034;-63
2022/07/27 03:47:08;;;;;;;2.83;1.00;;;24.50;55.10;;;;;;5030115;28;20033;-63
2022/07/27 03:49:33;;;;;;;3.78;1.58;;;24.50;55.10;;;;;;5047356;28;20548;-63
2022/07/27 03:51:59;;;;;;;4.05;1.20;;;24.50;55.20;;;;;;5048020;28;20079;-63
2022/07/27 03:54:24;;;;;;;5.05;1.00;;;24.50;55.10;;;;;;5047319;28;20029;-63
2022/07/27 03:56:50;;;;;;;2.15;0.80;;;24.50;54.60;;;;;;5025679;28;20053;-63
2022/07/27 03:59:15;;;;;;;3.45;1.25;;;24.50;55.00;;;;;;5026727;28;20033;-64
2022/07/27 04:01:41;;;;;;;2.92;0.90;;;24.50;55.00;;;;;;5028833;28;20409;-63
2022/07/27 04:04:06;;;;;;;4.53;1.20;;;24.50;54.90;;;;;;5027241;28;20037;-63
2022/07/27 04:06:32;;;;;;;2.03;1.10;;;24.50;54.90;;;;;;5030598;28;20033;-65
2022/07/27 04:08:57;;;;;;;3.00;0.95;;;24.40;54.80;;;;;;5027294;28;20440;-62
2022/07/27 04:11:23;;;;;;;2.13;1.05;;;24.40;54.80;;;;;;5027100;28;20029;-62
2022/07/27 04:13:49;;;;;;;3.40;1.25;;;24.40;54.70;;;;;;5027363;28;20120;-62
2022/07/27 04:16:14;;;;;;;2.67;1.15;;;24.40;54.80;;;;;;5028902;28;20040;-62
2022/07/27 04:18:40;;;;;;;3.17;0.93;;;24.40;54.70;;;;;;5046755;28;20025;-62
2022/07/27 04:21:05;;;;;;;3.05;0.88;;;24.40;54.80;;;;;;5038785;28;20029;-62
2022/07/27 04:23:31;;;;;;;3.65;1.20;;;24.40;54.80;;;;;;5027786;28;20044;-63
2022/07/27 04:25:57;;;;;;;5.20;0.93;;;24.30;54.80;;;;;;5028810;28;20025;-62
2022/07/27 04:28:23;;;;;;;4.32;0.75;;;24.30;54.80;;;;;;5011723;28;20740;-62
2022/07/27 04:30:48;;;;;;;2.53;0.90;;;24.30;54.90;;;;;;5042376;28;20033;-62
2022/07/27 04:33:14;;;;;;;3.22;1.00;;;24.30;54.90;;;;;;5027456;28;20036;-62
2022/07/27 04:35:40;;;;;;;2.97;0.93;;;24.30;54.80;;;;;;5028265;28;20519;-62
2022/07/27 04:38:05;;;;;;;3.80;1.20;;;24.40;54.90;;;;;;5028498;28;20566;-63
2022/07/27 04:40:31;;;;;;;3.20;1.00;;;24.30;54.80;;;;;;5046353;28;20040;-62
2022/07/27 04:42:57;;;;;;;5.55;1.20;;;24.30;54.80;;;;;;5025888;28;20037;-63
2022/07/27 04:45:23;;;;;;;4.53;1.40;;;24.30;54.80;;;;;;5027388;28;20029;-62
2022/07/27 04:47:48;;;;;;;4.00;1.27;;;24.30;54.80;;;;;;5045727;28;20021;-62
2022/07/27 04:50:14;;;;;;;2.83;0.90;;;24.30;54.80;;;;;;5046154;28;20037;-62
2022/07/27 04:52:39;;;;;;;3.22;1.02;;;24.30;54.70;;;;;;5029706;28;20079;-63
2022/07/27 04:55:05;;;;;;;4.05;1.08;;;24.30;54.70;;;;;;5026849;28;20026;-63
2022/07/27 04:57:30;;;;;;;3.90;1.60;;;24.30;54.70;;;;;;5028950;28;20037;-63
2022/07/27 04:59:56;;;;;;;4.18;1.20;;;24.30;54.60;;;;;;5046052;28;20029;-62
2022/07/27 05:02:21;;;;;;;3.40;1.10;;;24.30;54.60;;;;;;5033413;28;20998;-62
2022/07/27 05:04:47;;;;;;;4.90;1.15;;;24.20;54.40;;;;;;5026316;28;20022;-65
2022/07/27 05:07:12;;;;;;;4.20;1.00;;;24.30;54.40;;;;;;5028283;28;20029;-63
2022/07/27 05:09:38;;;;;;;2.92;1.00;;;24.20;54.30;;;;;;5045808;28;20390;-63
2022/07/27 05:12:03;;;;;;;4.65;1.30;;;24.20;54.30;;;;;;5036742;28;20148;-63
2022/07/27 05:14:29;;;;;;;3.08;1.30;;;24.20;54.30;;;;;;5026788;28;20047;-63
2022/07/27 05:16:54;;;;;;;3.85;1.40;;;24.20;54.30;;;;;;5033277;28;20029;-62
2022/07/27 05:19:21;;;;;;;3.28;1.27;;;24.20;54.30;;;;;;5045966;28;20025;-62
2022/07/27 05:21:46;;;;;;;5.13;1.52;;;24.20;54.20;;;;;;5040630;28;20709;-62
2022/07/27 05:24:12;;;;;;;2.88;1.10;;;24.20;54.30;;;;;;5026321;28;20029;-62
2022/07/27 05:26:37;;;;;;;3.05;1.13;;;24.20;54.10;;;;;;5029480;28;20040;-62
2022/07/27 05:29:03;;;;;;;2.80;1.10;;;24.20;54.10;;;;;;5011455;28;20553;-62
2022/07/27 05:31:28;;;;;;;3.60;1.10;;;24.10;54.10;;;;;;5044807;28;20687;-62
2022/07/27 05:33:54;;;;;;;4.43;1.00;;;24.10;54.10;;;;;;5026235;28;20033;-63
2022/07/27 05:36:19;;;;;;;2.40;0.90;;;24.10;54.00;;;;;;5027891;28;20084;-64
2022/07/27 05:38:45;;;;;;;2.70;0.90;;;24.10;54.00;;;;;;5015323;28;20078;-63
2022/07/27 05:41:10;;;;;;;4.55;1.52;;;24.10;54.00;;;;;;5049748;28;20493;-62
2022/07/27 05:43:36;;;;;;;3.78;1.25;;;24.10;53.90;;;;;;5032323;28;20041;-62
2022/07/27 05:46:01;;;;;;;5.32;1.05;;;24.20;53.90;;;;;;5030441;28;20030;-62
2022/07/27 05:48:27;;;;;;;6.63;1.90;;;24.10;53.90;;;;;;5045408;28;20521;-62
2022/07/27 05:50:52;;;;;;;5.72;1.33;;;24.10;53.90;;;;;;5048376;22;20068;-64
2022/07/27 05:53:18;;;;;;;5.25;1.60;;;24.10;53.80;;;;;;5029371;28;20029;-64
2022/07/27 05:55:43;;;;;;;4.03;1.38;;;24.10;53.70;;;;;;5029816;28;20545;-65
2022/07/27 05:58:09;;;;;;;6.22;1.58;;;24.10;53.80;;;;;;5029454;28;20021;-65
2022/07/27 06:00:35;;;;;;;3.70;1.38;;;24.10;53.70;;;;;;5029431;28;20541;-65
2022/07/27 06:03:00;;;;;;;3.00;1.33;;;24.10;53.70;;;;;;5040157;28;20484;-65
2022/07/27 06:05:26;;;;;;;6.93;1.52;;;24.10;53.70;;;;;;5049694;28;20078;-64
2022/07/27 06:07:57;;;;;;;5.53;0.90;;;24.10;53.60;;;;;;5041100;28;20079;-65
2022/07/27 06:10:23;;;;;;;3.13;1.33;;;24.10;53.70;;;;;;5029449;28;20041;-64
2022/07/27 06:12:49;;;;;;;3.25;0.95;;;24.10;53.60;;;;;;5036495;28;20024;-64
2022/07/27 06:15:16;;;;;;;4.03;1.30;;;24.00;53.60;;;;;;5049238;28;20105;-64
2022/07/27 06:17:41;;;;;;;3.97;1.17;;;24.10;53.50;;;;;;5043814;28;20029;-64
2022/07/27 06:20:07;;;;;;;3.38;0.77;;;24.10;53.60;;;;;;5029262;28;20555;-64
2022/07/27 06:22:43;;;;;;;3.42;1.17;;;24.10;53.50;;;;;;5031183;28;20028;-64
2022/07/27 06:25:08;;;;;;;3.47;1.30;;;24.00;53.40;;;;;;5048004;28;20025;-64
2022/07/27 06:27:36;;;;;;;3.30;1.30;;;24.10;53.50;;;;;;5045841;28;20451;-64
2022/07/27 06:30:02;;;;;;;4.60;1.30;;;24.10;53.50;;;;;;5029432;28;20044;-64
2022/07/27 06:32:28;;;;;;;6.40;1.67;;;24.00;53.30;;;;;;5030063;28;20087;-64
2022/07/27 06:34:53;;;;;;;2.85;0.90;;;24.00;53.20;;;;;;5049436;28;20033;-64
2022/07/27 06:37:18;;;;;;;4.22;1.10;;;24.10;53.00;;;;;;5048443;28;20780;-64
2022/07/27 06:39:45;;;;;;;6.10;1.30;;;24.00;53.10;;;;;;5029574;28;20029;-63
2022/07/27 06:42:13;;;;;;;6.88;1.77;;;24.00;53.00;;;;;;5029050;28;20026;-64
2022/07/27 06:44:39;;;;;;;6.20;1.98;;;24.00;53.00;;;;;;5047401;28;20083;-64
2022/07/27 06:47:04;;;;;;;4.93;1.60;;;23.90;52.80;;;;;;5048345;28;20896;-65
2022/07/27 06:49:30;;;;;;;5.43;1.05;;;23.90;52.70;;;;;;5033492;28;20416;-64
2022/07/27 06:51:55;;;;;;;4.07;1.38;;;23.90;53.30;;;;;;5029396;28;20041;-64
2022/07/27 06:54:21;;;;;;;4.82;1.40;;;24.00;52.60;;;;;;5043262;28;20056;-64
2022/07/27 06:56:46;;;;;;;4.32;1.35;;;23.90;52.50;;;;;;5048723;28;20060;-64
2022/07/27 06:59:12;;;;;;;2.80;1.65;;;23.90;52.40;;;;;;5036424;28;20378;-64
2022/07/27 07:01:37;;;;;;;4.32;2.00;;;24.00;52.40;;;;;;5027009;28;20040;-64
2022/07/27 07:04:03;;;;;;;3.25;1.13;;;23.90;52.30;;;;;;5029246;28;20033;-64
2022/07/27 07:06:28;;;;;;;3.08;1.15;;;23.90;52.30;;;;;;5028309;28;20117;-64
2022/07/27 07:08:54;;;;;;;4.75;1.38;;;23.90;52.30;;;;;;5028391;28;20059;-64
2022/07/27 07:11:19;;;;;;;7.22;1.70;;;23.90;52.30;;;;;;5028322;28;20032;-64
2022/07/27 07:13:45;;;;;;;5.32;1.27;;;23.90;52.30;;;;;;5035026;28;20513;-64
2022/07/27 07:16:11;;;;;;;4.57;1.88;;;23.90;52.30;;;;;;5048586;28;20063;-64
2022/07/27 07:18:36;;;;;;;3.10;1.20;;;23.90;52.40;;;;;;5043528;28;20149;-64
2022/07/27 07:21:02;;;;;;;4.60;1.75;;;23.90;52.30;;;;;;5028854;28;20506;-65
2022/07/27 07:23:27;;;;;;;4.13;1.60;;;23.90;52.20;;;;;;5030847;28;20044;-64
2022/07/27 07:25:53;;;;;;;3.88;1.38;;;23.90;52.20;;;;;;5048086;28;20040;-64
2022/07/27 07:28:21;;;;;;;3.72;1.38;;;23.90;52.20;;;;;;5047406;28;20041;-64
2022/07/27 07:30:47;;;;;;;4.55;1.48;;;23.90;52.10;;;;;;5028045;28;20026;-64
2022/07/27 07:33:13;;;;;;;5.60;1.33;;;23.90;52.00;;;;;;5027133;28;20555;-64
2022/07/27 07:35:38;;;;;;;6.55;1.63;;;23.80;51.90;;;;;;5047804;28;20476;-64
2022/07/27 07:38:04;;;;;;;4.22;1.10;;;23.90;51.90;;;;;;5048372;28;20063;-65
2022/07/27 07:40:29;;;;;;;2.90;1.40;;;23.80;51.90;;;;;;5030657;28;20036;-64
2022/07/27 07:42:59;;;;;;;4.43;1.60;;;23.90;52.10;;;;;;5028059;28;20022;-64
2022/07/27 07:45:25;;;;;;;4.38;1.42;;;23.90;52.00;;;;;;5043935;28;20408;-64
2022/07/27 07:47:51;;;;;;;5.30;1.52;;;23.90;51.90;;;;;;5047890;28;20033;-64
2022/07/27 07:50:16;;;;;;;2.97;1.65;;;23.80;51.70;;;;;;5033324;28;20048;-64
2022/07/27 07:52:42;;;;;;;5.82;1.42;;;23.80;51.80;;;;;;5027443;28;20029;-65
2022/07/27 07:55:08;;;;;;;4.20;1.33;;;23.80;51.90;;;;;;5039910;28;20020;-64
2022/07/27 07:57:33;;;;;;;3.65;1.15;;;23.80;51.80;;;;;;5047794;28;20037;-64
2022/07/27 07:59:59;;;;;;;4.22;1.30;;;23.80;51.70;;;;;;5035924;28;20033;-65
2022/07/27 08:02:24;;;;;;;5.53;1.83;;;23.70;51.80;;;;;;5027062;28;20414;-64
2022/07/27 08:04:50;;;;;;;3.47;1.20;;;23.80;51.80;;;;;;5035986;28;20048;-64
2022/07/27 08:07:15;;;;;;;3.55;1.00;;;23.70;51.30;;;;;;5047249;28;20028;-65
2022/07/27 08:09:41;;;;;;;3.63;1.60;;;23.80;51.70;;;;;;5040595;28;20038;-64
2022/07/27 08:12:06;;;;;;;3.97;0.90;;;23.80;51.70;;;;;;5027331;28;20025;-65
2022/07/27 08:14:32;;;;;;;6.47;1.63;;;23.80;51.70;;;;;;5032697;28;20117;-64
2022/07/27 08:16:58;;;;;;;2.42;0.85;;;23.80;51.90;;;;;;5047262;28;20063;-65
2022/07/27 08:19:23;;;;;;;4.32;1.50;;;23.80;51.80;;;;;;5045193;28;20033;-64
2022/07/27 08:21:49;;;;;;;2.80;1.10;;;23.80;51.70;;;;;;5026858;28;20033;-65
2022/07/27 08:24:14;;;;;;;2.20;1.00;;;23.70;51.00;;;;;;5029404;28;20057;-64
2022/07/27 08:26:40;;;;;;;3.13;1.10;;;23.70;51.30;;;;;;5047177;28;20025;-64
2022/07/27 08:29:06;;;;;;;3.10;1.00;;;23.70;51.50;;;;;;5046605;28;20029;-64
2022/07/27 08:31:38;;;;;;;5.15;1.23;;;23.80;51.50;;;;;;5121594;27;20972;-50
2022/07/27 08:34:03;;;;;;;2.05;0.82;;;23.80;51.40;;;;;;5122195;27;20043;-48
2022/07/27 08:36:29;;;;;;;3.17;1.20;;;23.80;51.40;;;;;;5088444;27;20082;-48
2022/07/27 08:38:55;;;;;;;2.45;0.80;;;23.70;51.10;;;;;;5081836;27;20037;-48
2022/07/27 08:41:21;;;;;;;5.65;1.10;;;23.70;51.10;;;;;;5088823;27;20553;-48
2022/07/27 08:43:47;;;;;;;2.55;0.90;;;23.70;51.40;;;;;;5074133;28;20031;-48
2022/07/27 08:46:12;;;;;;;3.17;1.40;;;23.70;51.20;;;;;;5092184;28;20404;-49
2022/07/27 08:48:38;;;;;;;3.22;1.08;;;23.70;51.00;;;;;;5091863;28;20093;-51
2022/07/27 08:51:06;;;;;;;3.38;1.20;;;23.70;51.20;;;;;;5091301;28;20139;-52
2022/07/27 08:53:31;;;;;;;3.92;0.98;;;23.70;51.00;;;;;;5079902;28;20043;-49
2022/07/27 08:55:57;;;;;;;4.95;1.10;;;23.70;50.70;;;;;;5092720;28;20027;-50
2022/07/27 08:58:22;;;;;;;1.85;0.82;;;23.60;50.30;;;;;;5089634;28;20039;-49
2022/07/27 09:00:51;;;;;;;3.28;0.88;;;23.70;51.00;;;;;;5090715;28;20718;-53
2022/07/27 09:03:18;;;;;;;3.63;1.13;;;23.70;51.20;;;;;;5091918;28;20031;-51
2022/07/27 09:05:44;;;;;;;4.55;1.33;;;23.60;50.20;;;;;;5090761;28;20085;-51
2022/07/27 09:08:11;;;;;;;1.55;0.90;;;23.70;51.20;;;;;;5092771;28;20024;-49
2022/07/27 09:10:37;;;;;;;4.38;1.20;;;23.70;51.30;;;;;;5089789;28;20048;-48
2022/07/27 09:13:16;;;;;;;3.85;1.10;;;23.70;51.40;;;;;;5093924;28;20058;-48
2022/07/27 09:15:46;;;;;;;2.60;0.98;;;23.70;51.20;;;;;;5090169;28;20369;-49
2022/07/27 09:18:19;;;;;;;3.25;0.90;;;23.60;51.10;;;;;;5091810;28;20067;-49
2022/07/27 09:20:45;;;;;;;3.42;0.80;;;23.50;50.50;;;;;;5088951;28;20038;-49
2022/07/27 09:23:10;;;;;;;4.13;0.70;;;23.60;51.00;;;;;;5092511;28;20119;-50
2022/07/27 09:25:37;;;;;;;1.83;1.00;;;23.60;50.80;;;;;;5089863;28;20229;-48
2022/07/27 09:28:02;;;;;;;2.35;0.70;;;23.60;50.60;;;;;;5093605;28;20679;-48
2022/07/27 09:30:28;;;;;;;2.70;0.85;;;23.60;50.50;;;;;;5088822;28;20071;-48
2022/07/27 09:32:58;;;;;;;5.57;1.08;;;23.60;50.50;;;;;;5091724;28;20101;-48
2022/07/27 09:35:32;;;;;;;2.97;1.00;;;23.60;50.50;;;;;;5089158;28;20445;-48
2022/07/27 09:38:17;;;;;;;2.97;0.93;;;23.60;51.10;;;;;;5092889;28;20130;-48
2022/07/27 09:40:42;;;;;;;3.65;1.17;;;23.60;50.60;;;;;;5089832;28;20094;-48
2022/07/27 09:43:09;;;;;;;2.65;0.77;;;23.60;50.60;;;;;;5078024;28;20405;-49
2022/07/27 09:45:35;;;;;;;3.13;0.65;;;23.60;50.40;;;;;;5076119;28;20112;-48
2022/07/27 09:48:11;;;;;;;1.85;0.90;;;23.50;50.10;;;;;;5074364;28;20464;-51
2022/07/27 09:50:57;;;;;;;5.10;1.10;;;23.60;50.10;;;;;;5078245;28;20047;-51
2022/07/27 09:53:25;;;;;;;3.05;0.80;;;23.50;49.80;;;;;;5078068;28;20044;-49
2022/07/27 09:56:09;;;;;;;7.75;0.93;;;23.60;49.70;;;;;;5077069;28;20226;-50
2022/07/27 09:58:52;;;;;;;2.45;0.80;;;23.50;49.80;;;;;;5075144;28;20448;-50
2022/07/27 10:01:20;;;;;;;3.72;0.80;;;23.50;49.80;;;;;;5077128;28;20579;-48
2022/07/27 10:03:46;;;;;;;3.33;1.05;;;23.50;49.60;;;;;;5077478;28;20564;-48
2022/07/27 10:06:11;;;;;;;2.88;0.75;;;23.50;49.60;;;;;;5074954;28;20120;-49
2022/07/27 10:08:38;;;;;;;5.10;1.00;;;23.50;49.70;;;;;;5078022;28;20038;-51
2022/07/27 10:11:04;;;;;;;4.72;0.82;;;23.50;49.80;;;;;;5075632;28;20036;-50
2022/07/27 10:13:30;;;;;;;4.47;1.67;;;23.50;50.00;;;;;;5078584;28;20548;-49
2022/07/27 10:15:55;;;;;;;4.75;1.20;;;23.50;49.90;;;;;;5074631;28;20033;-49
2022/07/27 10:18:59;;;;;;;2.15;0.90;;;23.50;50.10;;;;;;5075713;28;20090;-49
2022/07/27 10:21:25;;;;;;;3.65;0.98;;;23.60;50.30;;;;;;5067950;28;20032;-49
2022/07/27 10:24:00;;;;;;;2.78;0.70;;;23.50;50.40;;;;;;5076790;28;20039;-48
2022/07/27 10:26:32;;;;;;;4.97;1.02;;;23.50;51.10;;;;;;5077971;28;20063;-48
2022/07/27 10:29:13;;;;;;;3.05;1.17;;;23.50;50.40;;;;;;5074968;28;20056;-49
2022/07/27 10:31:40;;;;;;;4.13;1.10;;;23.50;50.40;;;;;;5074093;28;20048;-48
2022/07/27 10:34:06;;;;;;;3.15;0.90;;;23.50;50.30;;;;;;5079067;28;20707;-48
2022/07/27 10:36:32;;;;;;;4.75;1.02;;;23.50;50.20;;;;;;5087179;28;20507;-48
2022/07/27 10:39:00;;;;;;;3.83;1.35;;;23.50;50.30;;;;;;5086447;28;20028;-49
2022/07/27 10:41:31;;;;;;;5.63;1.00;;;23.50;50.20;;;;;;5085529;28;20033;-48
2022/07/27 10:44:17;;;;;;;4.80;0.98;;;23.50;50.20;;;;;;5086743;28;20032;-49
2022/07/27 10:47:00;;;;;;;2.25;1.13;;;23.40;49.90;;;;;;5085940;28;20032;-47
2022/07/27 10:49:27;;;;;;;2.22;0.70;;;23.40;49.90;;;;;;5085449;28;20397;-48
2022/07/27 10:51:53;;;;;;;1.75;0.75;;;23.40;49.80;;;;;;5086171;28;20028;-48
2022/07/27 10:54:25;;;;;;;2.67;1.00;;;23.50;50.00;;;;;;5085610;28;20028;-49
2022/07/27 10:56:52;;;;;;;2.40;0.95;;;23.40;50.00;;;;;;5086512;28;20589;-51
2022/07/27 10:59:39;;;;;;;4.57;0.73;;;23.40;50.00;;;;;;5085486;28;20037;-49
2022/07/27 11:02:06;;;;;;;3.47;1.00;;;23.50;50.10;;;;;;5086459;28;20020;-50
2022/07/27 11:04:32;;;;;;;3.08;0.90;;;23.50;50.00;;;;;;5075292;28;22371;-50
2022/07/27 11:07:01;;;;;;;2.95;1.00;;;23.50;50.10;;;;;;5074966;28;20028;-48
2022/07/27 11:09:36;;;;;;;1.85;0.88;;;23.50;50.20;;;;;;5076508;28;20067;-49
2022/07/27 11:12:03;;;;;;;3.17;0.93;;;23.50;50.40;;;;;;5073886;28;20020;-48
2022/07/27 11:14:29;;;;;;;2.67;0.95;;;23.50;50.40;;;;;;5059232;28;20032;-49
2022/07/27 11:16:56;;;;;;;1.80;0.82;;;23.50;50.40;;;;;;5071442;28;20092;-48
2022/07/27 11:19:22;;;;;;;3.08;0.95;;;23.50;50.50;;;;;;5064777;28;20031;-51
2022/07/27 11:21:48;;;;;;;3.22;1.10;;;23.50;50.50;;;;;;5083163;28;20049;-49
2022/07/27 11:24:16;;;;;;;3.88;0.85;;;23.50;50.40;;;;;;5068837;28;20029;-49
2022/07/27 11:26:46;;;;;;;2.83;0.90;;;23.50;50.40;;;;;;5063038;28;20670;-51
2022/07/27 11:29:12;;;;;;;3.33;1.17;;;23.40;49.30;;;;;;5062292;28;20053;-55
2022/07/27 11:31:39;;;;;;;2.08;0.95;;;23.40;50.10;;;;;;5063593;28;20029;-54
2022/07/27 11:34:05;;;;;;;1.52;0.73;;;23.40;50.00;;;;;;5063303;28;20029;-55
2022/07/27 11:36:41;;;;;;;3.38;1.23;;;23.40;49.90;;;;;;5065395;28;20422;-48
2022/07/27 11:39:09;;;;;;;3.53;0.82;;;23.40;50.00;;;;;;5051205;28;20521;-50
2022/07/27 11:41:35;;;;;;;3.75;1.20;;;23.50;50.20;;;;;;5063792;28;20052;-48
2022/07/27 11:44:06;;;;;;;3.78;1.05;;;23.40;50.10;;;;;;5064616;28;20043;-48
2022/07/27 11:46:33;;;;;;;2.30;0.82;;;23.40;50.00;;;;;;5065302;28;20029;-48
2022/07/27 11:49:03;;;;;;;2.75;0.98;;;23.40;49.80;;;;;;5064420;28;20024;-51
2022/07/27 11:51:29;;;;;;;2.80;0.80;;;23.40;49.80;;;;;;5064879;28;20397;-50
2022/07/27 11:54:01;;;;;;;1.48;0.70;;;23.40;50.10;;;;;;5064984;28;20032;-50
2022/07/27 11:56:29;;;;;;;4.63;1.35;;;23.40;50.00;;;;;;5065013;28;20078;-48
2022/07/27 11:59:09;;;;;;;1.85;1.00;;;23.40;49.80;;;;;;5064297;28;20116;-54
2022/07/27 12:01:43;;;;;;;2.10;0.95;;;23.40;49.80;;;;;;5064966;28;20021;-51
2022/07/27 12:04:13;;;;;;;4.63;1.17;;;23.40;49.70;;;;;;5057175;28;20661;-47
2022/07/27 12:06:40;;;;;;;3.45;1.02;;;23.40;49.50;;;;;;5058080;28;20028;-51
2022/07/27 12:09:06;;;;;;;5.35;1.30;;;23.40;49.60;;;;;;5068004;28;20490;-53
2022/07/27 12:11:53;;;;;;;3.08;1.13;;;23.40;49.70;;;;;;5064122;28;20033;-49
2022/07/27 12:14:26;;;;;;;2.85;0.98;;;23.40;49.70;;;;;;5068782;28;20039;-47
2022/07/27 12:16:53;;;;;;;3.15;1.20;;;23.40;49.80;;;;;;5065038;28;20055;-49
2022/07/27 12:19:22;;;;;;;1.80;1.00;;;23.40;49.70;;;;;;5062728;28;20020;-50
2022/07/27 12:21:54;;;;;;;2.55;1.00;;;23.40;49.60;;;;;;5064485;28;20052;-48
2022/07/27 12:24:31;;;;;;;3.45;0.95;;;23.40;49.50;;;;;;5064538;28;20112;-49
2022/07/27 12:27:07;;;;;;;3.47;1.05;;;23.40;49.40;;;;;;5064809;28;20036;-49
2022/07/27 12:29:52;;;;;;;3.53;1.00;;;23.40;49.50;;;;;;5064113;28;20032;-48
2022/07/27 12:32:17;;;;;;;3.50;0.98;;;23.40;49.30;;;;;;5062429;28;20503;-50
2022/07/27 12:34:43;;;;;;;4.18;1.30;;;23.40;49.50;;;;;;5064963;28;20044;-49
2022/07/27 12:37:12;;;;;;;2.17;0.90;;;23.40;49.70;;;;;;5065461;28;20051;-48
2022/07/27 12:39:40;;;;;;;3.05;0.95;;;23.20;49.00;;;;;;5064029;28;20025;-47
2022/07/27 12:42:06;;;;;;;3.50;0.80;;;23.20;49.70;;;;;;5063044;28;20400;-49
2022/07/27 12:44:36;;;;;;;2.00;1.05;;;23.30;49.40;;;;;;5064123;28;20067;-50
2022/07/27 12:47:39;;;;;;;2.67;0.93;;;23.30;49.70;;;;;;5064509;28;20024;-49
2022/07/27 12:50:04;;;;;;;2.58;1.00;;;23.30;49.50;;;;;;5063652;28;20105;-51